Portada
METAR-TAF:

METAR-TAF

Aeroports :

Dijon, França

latitud: 47-16N, longitud: 005-05E, altitud: 222 m

Observació

L'informe es va fer fa 37 minuts, a les 21:30 UTC
Vent calma
Temperatura 24°C
Humitat 50%
Pressió 1016 hPa
Visibilitat 10 km o més
sense núvols per sota de 1500 mi sense presència de cumulonimbus.

METAR: LFSD 232130Z AUTO 00000KT CAVOK 24/13 Q1016

Hora: 00:07 (22:07 UTC)


TAF: manca

Observacions i pronòstics meteorològics de més de 4000 aeroports (METAR i TAF).

Les estacions disponibles són els punts grocs i vermells al mapa.

Posi el ratolí al punt desitjat per veure el nom de l'estació.

Feu clic per veure les observacions i els pronòstics meteorològics.

Per canviar el mapa: feu clic els botons verds amb una creu de color negre per apropar; al botó verd amb un guió per allunyar la imatge; o en les fletxes verdes per a mapes adjacents.


METAR-TAF: